createdAt,value
2019-02-01T00:00:50.368Z,119.30
2019-02-01T00:03:19.842Z,119.93
2019-02-01T00:05:49.328Z,114.40
2019-02-01T00:08:18.782Z,121.30
2019-02-01T00:10:48.333Z,114.27
2019-02-01T00:13:17.777Z,119.20
2019-02-01T00:15:47.323Z,123.40
2019-02-01T00:18:16.921Z,122.80
2019-02-01T00:20:46.375Z,90.50
2019-02-01T00:23:15.838Z,81.97
2019-02-01T00:25:45.300Z,67.47
2019-02-01T00:28:14.780Z,77.40
2019-02-01T00:30:44.264Z,82.93
2019-02-01T00:33:13.740Z,100.37
2019-02-01T00:35:43.225Z,81.93
2019-02-01T00:38:12.846Z,87.53
2019-02-01T00:40:42.386Z,123.00
2019-02-01T00:43:11.911Z,126.03
2019-02-01T00:45:41.437Z,95.40
2019-02-01T00:48:12.098Z,87.90
2019-02-01T00:50:41.943Z,113.80
2019-02-01T00:53:11.435Z,113.53
2019-02-01T00:55:40.943Z,81.77
2019-02-01T00:58:10.388Z,97.37
2019-02-01T01:00:39.913Z,104.83
2019-02-01T01:03:09.592Z,91.00
2019-02-01T01:05:39.035Z,99.80
2019-02-01T01:08:08.494Z,103.77
2019-02-01T01:10:38.007Z,81.67
2019-02-01T01:13:07.723Z,82.07
2019-02-01T01:15:37.471Z,79.47
2019-02-01T01:18:07.361Z,84.00
2019-02-01T01:20:36.951Z,98.20
2019-02-01T01:23:06.620Z,81.00
2019-02-01T01:25:36.095Z,75.13
2019-02-01T01:28:06.135Z,82.20
2019-02-01T01:30:35.905Z,86.80
2019-02-01T01:33:05.782Z,79.37
2019-02-01T01:35:35.271Z,68.20
2019-02-01T01:38:04.953Z,88.13
2019-02-01T01:40:34.646Z,79.73
2019-02-01T01:43:04.545Z,61.83
2019-02-01T01:45:34.237Z,82.30
2019-02-01T01:48:03.788Z,82.00
2019-02-01T01:50:33.334Z,66.60
2019-02-01T01:53:02.885Z,75.27
2019-02-01T01:55:32.372Z,69.43
2019-02-01T01:58:01.811Z,81.20
2019-02-01T02:00:33.429Z,75.43
2019-02-01T02:03:03.111Z,76.90
2019-02-01T02:05:32.726Z,70.23
2019-02-01T02:08:02.406Z,81.80
2019-02-01T02:10:31.842Z,65.63
2019-02-01T02:13:01.531Z,63.33
2019-02-01T02:15:31.039Z,86.10
2019-02-01T02:18:00.487Z,58.97
2019-02-01T02:20:29.943Z,60.70
2019-02-01T02:22:59.410Z,62.83
2019-02-01T02:25:28.854Z,54.30
2019-02-01T02:27:58.309Z,67.43
2019-02-01T02:30:28.133Z,89.30
2019-02-01T02:32:59.105Z,67.67
2019-02-01T02:35:28.554Z,69.23
2019-02-01T02:37:58.040Z,69.63
2019-02-01T02:40:27.498Z,68.60
2019-02-01T02:42:56.943Z,60.00
2019-02-01T02:45:26.459Z,62.23
2019-02-01T02:47:55.909Z,69.37
2019-02-01T02:50:25.353Z,60.93
2019-02-01T02:52:55.354Z,61.17
2019-02-01T02:55:24.972Z,61.77
2019-02-01T02:57:54.421Z,68.40
2019-02-01T03:00:29.859Z,56.63
2019-02-01T03:02:59.465Z,54.13
2019-02-01T03:05:29.262Z,63.07
2019-02-01T03:07:58.982Z,52.97
2019-02-01T03:10:28.498Z,52.57
2019-02-01T03:12:58.116Z,47.10
2019-02-01T03:15:27.604Z,53.90
2019-02-01T03:17:57.153Z,51.67
2019-02-01T03:20:26.693Z,47.60
2019-02-01T03:22:56.250Z,44.47
2019-02-01T03:25:25.870Z,46.03
2019-02-01T03:27:55.318Z,55.20
2019-02-01T03:30:28.369Z,46.43
2019-02-01T03:32:57.806Z,50.37
2019-02-01T03:35:28.696Z,46.83
2019-02-01T03:37:58.216Z,48.03
2019-02-01T03:40:27.649Z,51.70
2019-02-01T03:42:57.098Z,53.93
2019-02-01T03:45:26.593Z,49.70
2019-02-01T03:47:56.037Z,45.30
2019-02-01T03:50:25.658Z,42.47
2019-02-01T03:52:55.144Z,41.30
2019-02-01T03:55:25.566Z,50.33
2019-02-01T03:57:55.045Z,45.10
2019-02-01T04:00:26.537Z,50.47
2019-02-01T04:02:56.427Z,43.73
2019-02-01T04:05:25.863Z,45.70
2019-02-01T04:07:55.514Z,42.40
2019-02-01T04:10:26.402Z,36.10
2019-02-01T04:12:55.848Z,45.50
2019-02-01T04:15:25.646Z,45.87
2019-02-01T04:17:55.366Z,47.50
2019-02-01T04:20:25.081Z,38.40
2019-02-01T04:22:54.566Z,47.60
2019-02-01T04:25:24.175Z,39.47
2019-02-01T04:27:53.634Z,46.13
2019-02-01T04:30:25.518Z,34.07
2019-02-01T04:32:55.241Z,37.57
2019-02-01T04:35:24.784Z,38.50
2019-02-01T04:37:54.519Z,51.67
2019-02-01T04:40:25.303Z,44.33
2019-02-01T04:42:54.937Z,43.40
2019-02-01T04:45:31.095Z,43.00
2019-02-01T04:48:01.077Z,45.30
2019-02-01T04:50:30.593Z,42.43
2019-02-01T04:53:00.066Z,47.17
2019-02-01T04:55:29.523Z,40.80
2019-02-01T04:57:58.967Z,49.80
2019-02-01T05:00:32.387Z,44.10
2019-02-01T05:03:02.054Z,42.77
2019-02-01T05:05:31.645Z,37.53
2019-02-01T05:08:01.242Z,44.43
2019-02-01T05:10:30.694Z,41.20
2019-02-01T05:13:00.133Z,35.73
2019-02-01T05:15:29.632Z,34.47
2019-02-01T05:17:59.072Z,40.57
2019-02-01T05:20:28.516Z,51.33
2019-02-01T05:22:58.268Z,42.43
2019-02-01T05:25:28.258Z,40.03
2019-02-01T05:27:57.807Z,38.57
2019-02-01T05:30:27.283Z,39.73
2019-02-01T05:32:56.740Z,34.63
2019-02-01T05:35:26.188Z,51.87
2019-02-01T05:37:55.672Z,43.20
2019-02-01T05:40:25.152Z,40.77
2019-02-01T05:42:57.993Z,39.13
2019-02-01T05:45:45.140Z,46.20
2019-02-01T05:48:15.968Z,36.57
2019-02-01T05:50:45.530Z,48.30
2019-02-01T05:53:15.006Z,40.60
2019-02-01T05:55:44.456Z,36.43
2019-02-01T05:58:14.133Z,48.97
2019-02-01T06:00:44.135Z,51.73
2019-02-01T06:03:13.585Z,37.57
2019-02-01T06:05:43.262Z,42.70
2019-02-01T06:08:12.758Z,38.70
2019-02-01T06:10:42.201Z,50.10
2019-02-01T06:13:11.650Z,45.93
2019-02-01T06:15:41.198Z,51.73
2019-02-01T06:18:10.653Z,51.63
2019-02-01T06:20:40.854Z,41.67
2019-02-01T06:23:10.465Z,61.87
2019-02-01T06:25:39.922Z,40.23
2019-02-01T06:28:09.374Z,40.57
2019-02-01T06:30:38.842Z,58.17
2019-02-01T06:33:08.340Z,56.20
2019-02-01T06:35:37.810Z,59.37
2019-02-01T06:38:07.469Z,45.90
2019-02-01T06:40:38.532Z,50.53
2019-02-01T06:43:09.526Z,46.40
2019-02-01T06:45:39.014Z,38.93
2019-02-01T06:48:08.602Z,56.37
2019-02-01T06:50:51.420Z,44.87
2019-02-01T06:53:10.964Z,43.93
2019-02-01T06:55:40.417Z,60.23
2019-02-01T06:58:09.864Z,58.57
2019-02-01T07:00:41.011Z,63.13
2019-02-01T07:03:28.689Z,52.17
2019-02-01T07:05:58.163Z,58.37
2019-02-01T07:08:32.143Z,49.90
2019-02-01T07:11:03.260Z,64.33
2019-02-01T07:13:37.306Z,49.03
2019-02-01T07:16:08.482Z,54.07
2019-02-01T07:18:48.301Z,63.23
2019-02-01T07:21:28.465Z,41.10
2019-02-01T07:24:11.739Z,69.60
2019-02-01T07:26:42.890Z,47.00
2019-02-01T07:31:50.113Z,76.60
2019-02-01T07:34:19.600Z,69.20
2019-02-01T07:36:49.042Z,58.00
2019-02-01T07:39:18.529Z,51.40
2019-02-01T07:41:47.979Z,76.33
2019-02-01T07:44:18.869Z,69.60
2019-02-01T07:46:48.344Z,52.37
2019-02-01T07:49:17.798Z,65.03
2019-02-01T07:51:47.247Z,55.70
2019-02-01T07:54:16.724Z,81.97
2019-02-01T07:56:46.260Z,87.83
2019-02-01T07:59:15.711Z,82.87
2019-02-01T08:01:45.203Z,69.83
2019-02-01T08:04:14.644Z,89.37
2019-02-01T08:06:44.096Z,59.20
2019-02-01T08:09:13.576Z,69.53
2019-02-01T08:11:43.029Z,63.57
2019-02-01T08:14:13.530Z,74.93
2019-02-01T08:16:43.009Z,74.83
2019-02-01T08:19:12.456Z,81.43
2019-02-01T08:21:41.913Z,89.20
2019-02-01T08:24:11.386Z,63.80
2019-02-01T08:26:40.834Z,77.00
2019-02-01T08:29:10.347Z,68.73
2019-02-01T08:31:39.830Z,76.27
2019-02-01T08:34:09.274Z,89.17
2019-02-01T08:36:38.799Z,66.33
2019-02-01T08:39:09.326Z,65.77
2019-02-01T08:41:38.778Z,78.07
2019-02-01T08:44:08.354Z,72.77
2019-02-01T08:46:37.824Z,75.20
2019-02-01T08:49:07.272Z,76.03
2019-02-01T08:51:38.611Z,80.23
2019-02-01T08:54:08.228Z,65.83
2019-02-01T08:56:37.858Z,87.30
2019-02-01T08:59:07.464Z,67.83
2019-02-01T09:01:36.950Z,68.73
2019-02-01T09:04:06.596Z,76.50
2019-02-01T09:06:36.000Z,73.97
2019-02-01T09:09:08.549Z,73.93
2019-02-01T09:11:37.992Z,67.83
2019-02-01T09:14:07.520Z,62.40
2019-02-01T09:16:36.988Z,69.73
2019-02-01T09:19:06.500Z,94.13
2019-02-01T09:21:35.952Z,72.97
2019-02-01T09:24:06.235Z,94.77
2019-02-01T09:26:35.743Z,88.17
2019-02-01T09:29:05.255Z,94.97
2019-02-01T09:31:34.741Z,66.93
2019-02-01T09:34:04.321Z,87.17
2019-02-01T09:36:33.772Z,75.20
2019-02-01T09:39:03.721Z,67.97
2019-02-01T09:41:33.164Z,62.27
2019-02-01T09:44:02.609Z,75.87
2019-02-01T09:46:32.097Z,69.27
2019-02-01T09:49:01.551Z,55.70
2019-02-01T09:51:31.003Z,62.77
2019-02-01T09:54:00.476Z,74.77
2019-02-01T09:56:29.927Z,52.93
2019-02-01T09:58:59.374Z,59.83
2019-02-01T10:01:28.868Z,56.83
2019-02-01T10:03:58.321Z,55.77
2019-02-01T10:06:27.766Z,57.50
2019-02-01T10:08:57.239Z,51.97
2019-02-01T10:11:26.685Z,58.87
2019-02-01T10:13:56.132Z,56.67
2019-02-01T10:16:25.875Z,62.90
2019-02-01T10:18:55.317Z,53.10
2019-02-01T10:21:24.767Z,48.67
2019-02-01T10:23:54.423Z,44.83
2019-02-01T10:26:23.880Z,46.47
2019-02-01T10:28:53.327Z,49.67
2019-02-01T10:31:22.815Z,43.00
2019-02-01T10:33:52.266Z,46.30
2019-02-01T10:36:21.795Z,49.87
2019-02-01T10:38:51.283Z,44.10
2019-02-01T10:41:20.726Z,47.67
2019-02-01T10:43:50.175Z,38.37
2019-02-01T10:46:19.653Z,40.37
2019-02-01T10:48:49.107Z,45.37
2019-02-01T10:51:19.995Z,41.83
2019-02-01T10:53:49.472Z,46.17
2019-02-01T10:56:18.918Z,45.97
2019-02-01T10:58:48.377Z,41.23
2019-02-01T11:01:17.855Z,39.63
2019-02-01T11:03:47.303Z,38.77
2019-02-01T11:06:16.750Z,35.83
2019-02-01T11:08:46.228Z,35.13
2019-02-01T11:11:15.678Z,36.50
2019-02-01T11:13:45.127Z,34.77
2019-02-01T11:16:14.606Z,38.03
2019-02-01T11:18:44.044Z,35.67
2019-02-01T11:21:13.500Z,40.30
2019-02-01T11:23:42.980Z,37.17
2019-02-01T11:26:12.422Z,41.73
2019-02-01T11:28:42.033Z,34.77
2019-02-01T11:31:11.511Z,38.27
2019-02-01T11:33:40.951Z,39.47
2019-02-01T11:36:10.476Z,34.33
2019-02-01T11:38:39.958Z,33.47
2019-02-01T11:41:09.409Z,35.37
2019-02-01T11:43:38.862Z,38.60
2019-02-01T11:46:08.356Z,37.47
2019-02-01T11:48:37.801Z,31.20
2019-02-01T11:51:07.326Z,30.43
2019-02-01T11:53:38.303Z,31.60
2019-02-01T11:56:07.754Z,30.90
2019-02-01T11:58:37.203Z,40.50
2019-02-01T12:01:07.479Z,29.57
2019-02-01T12:03:36.930Z,31.80
2019-02-01T12:06:06.448Z,34.37
2019-02-01T12:08:35.926Z,30.40
2019-02-01T12:11:05.605Z,27.60
2019-02-01T12:13:35.055Z,35.47
2019-02-01T12:16:04.541Z,34.20
2019-02-01T12:18:33.981Z,35.23
2019-02-01T12:21:04.550Z,37.87
2019-02-01T12:23:34.214Z,27.97
2019-02-01T12:26:03.607Z,41.17
2019-02-01T12:28:33.048Z,35.63
2019-02-01T12:31:02.602Z,33.07
2019-02-01T12:33:32.045Z,36.13
2019-02-01T12:36:01.488Z,30.83
2019-02-01T12:38:30.965Z,34.43
2019-02-01T12:41:00.525Z,37.07
2019-02-01T12:43:29.933Z,37.70
2019-02-01T12:45:59.411Z,41.20
2019-02-01T12:48:28.863Z,40.77
2019-02-01T12:50:58.313Z,29.00
2019-02-01T12:53:29.326Z,40.40
2019-02-01T12:56:00.288Z,40.10
2019-02-01T12:58:29.739Z,34.57
2019-02-01T13:00:59.227Z,28.53
2019-02-01T13:03:28.679Z,35.27
2019-02-01T13:05:58.113Z,36.40
2019-02-01T13:08:27.628Z,34.27
2019-02-01T13:10:58.191Z,40.57
2019-02-01T13:13:27.722Z,35.40
2019-02-01T13:15:57.399Z,35.80
2019-02-01T13:18:26.852Z,43.33
2019-02-01T13:20:56.363Z,36.20
2019-02-01T13:23:25.868Z,35.87
2019-02-01T13:25:55.326Z,34.53
2019-02-01T13:28:24.841Z,37.10
2019-02-01T13:30:54.321Z,33.60
2019-02-01T13:33:23.840Z,33.00
2019-02-01T13:35:53.290Z,34.73
2019-02-01T13:38:22.768Z,35.97
2019-02-01T13:40:52.205Z,29.30
2019-02-01T13:43:21.656Z,35.37
2019-02-01T13:46:00.935Z,39.50
2019-02-01T13:48:21.974Z,41.03
2019-02-01T13:50:51.423Z,44.90
2019-02-01T13:53:20.946Z,38.93
2019-02-01T13:55:50.388Z,47.33
2019-02-01T13:58:19.840Z,33.07
2019-02-01T14:00:49.474Z,39.10
2019-02-01T14:03:18.932Z,29.43
2019-02-01T14:05:48.380Z,39.27
2019-02-01T14:08:17.856Z,42.30
2019-02-01T14:10:47.345Z,37.57
2019-02-01T14:13:16.787Z,34.90
2019-02-01T14:15:46.272Z,37.13
2019-02-01T14:18:15.710Z,33.43
2019-02-01T14:20:45.159Z,30.10
2019-02-01T14:23:19.265Z,28.47
2019-02-01T14:25:48.780Z,33.07
2019-02-01T14:28:18.225Z,35.23
2019-02-01T14:30:47.892Z,37.83
2019-02-01T14:33:17.394Z,35.20
2019-02-01T14:35:46.840Z,31.10
2019-02-01T14:38:16.458Z,32.10
2019-02-01T14:40:45.845Z,32.53
2019-02-01T14:43:15.300Z,34.27
2019-02-01T14:45:44.775Z,39.10
2019-02-01T14:48:14.227Z,46.73
2019-02-01T14:50:43.713Z,32.37
2019-02-01T14:53:13.256Z,31.13
2019-02-01T14:55:42.703Z,32.03
2019-02-01T14:58:12.159Z,44.90
2019-02-01T15:00:41.829Z,28.57
2019-02-01T15:03:11.342Z,33.07
2019-02-01T15:05:40.789Z,29.93
2019-02-01T15:08:10.390Z,31.10
2019-02-01T15:10:39.835Z,29.43
2019-02-01T15:13:09.351Z,35.60
2019-02-01T15:15:38.923Z,29.37
2019-02-01T15:18:08.383Z,41.20
2019-02-01T15:20:38.075Z,31.90
2019-02-01T15:23:07.770Z,35.97
2019-02-01T15:25:37.206Z,37.63
2019-02-01T15:28:07.140Z,41.00
2019-02-01T15:30:36.639Z,34.10
2019-02-01T15:33:06.486Z,34.77
2019-02-01T15:35:38.374Z,38.90
2019-02-01T15:38:07.813Z,40.87
2019-02-01T15:40:37.270Z,37.13
2019-02-01T15:43:07.410Z,37.10
2019-02-01T15:45:36.862Z,32.27
2019-02-01T15:48:06.903Z,41.37
2019-02-01T15:50:36.353Z,37.83
2019-02-01T15:53:07.343Z,35.13
2019-02-01T15:55:36.783Z,40.13
2019-02-01T15:58:06.407Z,40.00
2019-02-01T16:00:41.959Z,41.40
2019-02-01T16:03:12.780Z,31.57
2019-02-01T16:05:42.259Z,35.90
2019-02-01T16:08:11.704Z,31.93
2019-02-01T16:10:41.188Z,40.40
2019-02-01T16:13:10.644Z,29.73
2019-02-01T16:15:40.285Z,42.53
2019-02-01T16:18:10.125Z,38.30
2019-02-01T16:20:39.579Z,77.20
2019-02-01T16:23:09.028Z,41.50
2019-02-01T16:25:38.530Z,40.43
2019-02-01T16:28:08.001Z,37.83
2019-02-01T16:30:39.588Z,43.13
2019-02-01T16:33:09.464Z,38.73
2019-02-01T16:35:39.093Z,41.73
2019-02-01T16:38:09.155Z,36.90
2019-02-01T16:40:38.954Z,30.63
2019-02-01T16:43:08.481Z,32.10
2019-02-01T16:45:37.924Z,42.37
2019-02-01T16:48:07.671Z,38.00
2019-02-01T16:50:37.115Z,33.00
2019-02-01T16:53:06.727Z,25.77
2019-02-01T16:55:37.125Z,45.37
2019-02-01T16:58:07.776Z,27.43
2019-02-01T17:00:42.763Z,57.83
2019-02-01T17:03:12.741Z,39.30
2019-02-01T17:05:42.352Z,29.33
2019-02-01T17:08:12.327Z,36.80
2019-02-01T17:10:42.198Z,48.33
2019-02-01T17:13:12.021Z,41.13
2019-02-01T17:15:41.526Z,36.70
2019-02-01T17:18:11.617Z,60.00
2019-02-01T17:20:41.199Z,47.37
2019-02-01T17:23:10.639Z,44.43
2019-02-01T17:25:40.116Z,48.70
2019-02-01T17:28:09.737Z,46.63
2019-02-01T17:30:43.192Z,43.63
2019-02-01T17:33:13.217Z,45.73
2019-02-01T17:35:42.661Z,44.87
2019-02-01T17:38:12.124Z,44.20
2019-02-01T17:40:43.546Z,41.03
2019-02-01T17:43:13.268Z,50.87
2019-02-01T17:45:42.856Z,44.47
2019-02-01T17:48:12.569Z,46.90
2019-02-01T17:50:42.559Z,45.60
2019-02-01T17:53:12.038Z,44.13
2019-02-01T17:55:41.575Z,41.33
2019-02-01T17:58:11.084Z,43.57
2019-02-01T18:00:48.809Z,44.03
2019-02-01T18:03:18.260Z,42.27
2019-02-01T18:05:47.712Z,41.10
2019-02-01T18:08:17.203Z,45.87
2019-02-01T18:10:46.721Z,47.00
2019-02-01T18:13:16.166Z,34.33
2019-02-01T18:15:45.647Z,37.63
2019-02-01T18:18:15.090Z,43.50
2019-02-01T18:20:44.863Z,43.47
2019-02-01T18:23:14.347Z,43.37
2019-02-01T18:25:43.795Z,47.40
2019-02-01T18:28:13.240Z,42.67
2019-02-01T18:30:42.728Z,45.43
2019-02-01T18:33:12.174Z,51.10
2019-02-01T18:35:43.262Z,47.53
2019-02-01T18:38:19.600Z,54.33
2019-02-01T18:40:43.990Z,49.00
2019-02-01T18:43:13.433Z,49.73
2019-02-01T18:45:42.914Z,54.63
2019-02-01T18:48:14.011Z,50.97
2019-02-01T18:50:43.451Z,52.90
2019-02-01T18:53:13.293Z,43.80
2019-02-01T18:55:42.735Z,46.53
2019-02-01T18:58:12.188Z,48.93
2019-02-01T19:00:51.411Z,49.70
2019-02-01T19:03:12.852Z,50.37
2019-02-01T19:05:42.304Z,41.27
2019-02-01T19:08:12.237Z,49.17
2019-02-01T19:10:41.753Z,44.23
2019-02-01T19:13:11.200Z,51.17
2019-02-01T19:15:40.685Z,52.00
2019-02-01T19:18:10.130Z,49.33
2019-02-01T19:20:39.618Z,60.10
2019-02-01T19:23:09.141Z,48.67
2019-02-01T19:25:45.282Z,50.87
2019-02-01T19:28:09.790Z,50.17
2019-02-01T19:30:43.355Z,47.77
2019-02-01T19:33:13.168Z,52.63
2019-02-01T19:35:42.922Z,42.40
2019-02-01T19:38:15.114Z,55.37
2019-02-01T19:40:44.728Z,60.00
2019-02-01T19:43:14.295Z,58.40
2019-02-01T19:45:43.727Z,53.17
2019-02-01T19:48:13.242Z,54.93
2019-02-01T19:50:42.892Z,57.97
2019-02-01T19:53:12.336Z,55.90
2019-02-01T19:55:42.519Z,59.97
2019-02-01T19:58:12.798Z,57.63
2019-02-01T20:00:42.241Z,54.57
2019-02-01T20:03:11.730Z,54.33
2019-02-01T20:05:41.244Z,44.07
2019-02-01T20:08:10.699Z,56.13
2019-02-01T20:10:40.181Z,47.30
2019-02-01T20:13:09.703Z,48.10
2019-02-01T20:15:39.236Z,47.60
2019-02-01T20:18:09.235Z,58.00
2019-02-01T20:20:38.697Z,46.17
2019-02-01T20:23:08.138Z,43.37
2019-02-01T20:25:37.845Z,51.77
2019-02-01T20:28:07.289Z,54.10
2019-02-01T20:30:39.917Z,51.23
2019-02-01T20:33:11.048Z,54.17
2019-02-01T20:35:40.766Z,54.70
2019-02-01T20:38:10.346Z,56.23
2019-02-01T20:40:44.564Z,54.23
2019-02-01T20:43:13.909Z,44.40
2019-02-01T20:45:43.425Z,64.60
2019-02-01T20:48:12.910Z,47.57
2019-02-01T20:50:42.352Z,44.33
2019-02-01T20:53:11.804Z,55.23
2019-02-01T20:55:41.358Z,51.50
2019-02-01T20:58:10.797Z,49.80
2019-02-01T21:00:40.287Z,61.00
2019-02-01T21:03:09.798Z,45.63
2019-02-01T21:05:39.245Z,57.00
2019-02-01T21:08:08.694Z,63.10
2019-02-01T21:10:38.179Z,49.97
2019-02-01T21:13:14.543Z,62.37
2019-02-01T21:15:38.872Z,51.57
2019-02-01T21:18:08.495Z,46.13
2019-02-01T21:20:38.347Z,59.10
2019-02-01T21:23:08.096Z,47.63
2019-02-01T21:25:37.568Z,58.00
2019-02-01T21:28:08.672Z,67.93
2019-02-01T21:30:38.833Z,46.93
2019-02-01T21:33:08.284Z,52.40
2019-02-01T21:35:37.736Z,49.03
2019-02-01T21:38:07.188Z,55.47
2019-02-01T21:40:36.724Z,47.60
2019-02-01T21:43:06.731Z,52.93
2019-02-01T21:45:36.179Z,50.03
2019-02-01T21:48:06.935Z,52.77
2019-02-01T21:50:38.604Z,46.43
2019-02-01T21:53:08.312Z,49.23
2019-02-01T21:55:38.005Z,46.47
2019-02-01T21:58:07.515Z,50.37
2019-02-01T22:00:37.017Z,50.80
2019-02-01T22:03:06.529Z,50.90
2019-02-01T22:05:35.977Z,44.40
2019-02-01T22:08:06.298Z,53.50
2019-02-01T22:10:35.742Z,54.67
2019-02-01T22:13:06.207Z,50.73
2019-02-01T22:15:35.690Z,46.10
2019-02-01T22:18:05.969Z,51.80
2019-02-01T22:20:35.473Z,50.53
2019-02-01T22:23:05.231Z,45.40
2019-02-01T22:25:34.846Z,44.13
2019-02-01T22:28:04.674Z,46.77
2019-02-01T22:30:35.393Z,49.40
2019-02-01T22:33:05.876Z,51.03
2019-02-01T22:35:35.390Z,53.07
2019-02-01T22:38:07.885Z,48.97
2019-02-01T22:40:37.394Z,56.03
2019-02-01T22:43:07.321Z,45.77
2019-02-01T22:45:36.796Z,55.30
2019-02-01T22:48:07.163Z,49.00
2019-02-01T22:50:55.999Z,59.37
2019-02-01T22:53:25.434Z,57.47
2019-02-01T22:55:54.885Z,68.67
2019-02-01T22:58:24.366Z,58.83
2019-02-01T23:01:00.062Z,60.90
2019-02-01T23:03:36.982Z,57.57
2019-02-01T23:06:08.335Z,42.10
2019-02-01T23:08:37.777Z,62.00
2019-02-01T23:11:07.575Z,65.07
2019-02-01T23:13:37.063Z,62.93
2019-02-01T23:16:08.579Z,68.67
2019-02-01T23:18:38.316Z,66.50
2019-02-01T23:21:09.867Z,54.17
2019-02-01T23:23:39.316Z,63.50
2019-02-01T23:26:09.099Z,57.50
2019-02-01T23:28:38.553Z,46.20
2019-02-01T23:31:08.198Z,47.67
2019-02-01T23:33:37.628Z,56.47
2019-02-01T23:36:07.309Z,50.30
2019-02-01T23:38:36.748Z,62.83
2019-02-01T23:41:06.314Z,63.53
2019-02-01T23:43:35.753Z,60.50
2019-02-01T23:46:06.537Z,60.70
2019-02-01T23:48:36.197Z,62.67
2019-02-01T23:51:05.873Z,54.77
2019-02-01T23:53:35.320Z,54.43
2019-02-01T23:56:05.008Z,48.40
2019-02-01T23:58:34.482Z,50.80
